createdAt,value
2023-10-14T00:01:30.314Z,1.23
2023-10-14T00:03:58.012Z,1.30
2023-10-14T00:06:26.618Z,1.20
2023-10-14T00:08:58.771Z,1.57
2023-10-14T00:11:36.591Z,1.90
2023-10-14T00:14:16.115Z,1.57
2023-10-14T00:16:52.659Z,2.43
2023-10-14T00:19:24.307Z,2.40
2023-10-14T00:21:52.080Z,2.17
2023-10-14T00:24:29.579Z,2.17
2023-10-14T00:27:08.669Z,2.63
2023-10-14T00:29:38.048Z,2.50
2023-10-14T00:32:05.436Z,3.40
2023-10-14T00:34:32.395Z,3.20
2023-10-14T00:36:59.922Z,2.60
2023-10-14T00:39:32.611Z,2.60
2023-10-14T00:42:00.594Z,2.70
2023-10-14T00:44:29.086Z,3.27
2023-10-14T00:46:57.432Z,2.90
2023-10-14T00:49:32.622Z,3.60
2023-10-14T00:52:10.837Z,3.07
2023-10-14T00:54:41.274Z,3.20
2023-10-14T00:57:21.179Z,3.40
2023-10-14T00:59:55.133Z,3.17
2023-10-14T01:02:31.686Z,2.83
2023-10-14T01:05:08.609Z,3.47
2023-10-14T01:07:35.759Z,3.07
2023-10-14T01:10:06.484Z,3.50
2023-10-14T01:12:45.293Z,3.17
2023-10-14T01:15:29.723Z,4.10
2023-10-14T01:17:56.890Z,2.87
2023-10-14T01:20:23.925Z,2.73
2023-10-14T01:23:01.752Z,3.30
2023-10-14T01:25:33.191Z,3.27
2023-10-14T01:28:01.604Z,3.00
2023-10-14T01:30:33.995Z,3.03
2023-10-14T01:33:26.110Z,2.77
2023-10-14T01:35:53.409Z,2.60
2023-10-14T01:38:20.684Z,2.90
2023-10-14T01:40:50.687Z,2.97
2023-10-14T01:43:18.566Z,3.07
2023-10-14T01:46:00.548Z,2.83
2023-10-14T01:48:39.674Z,3.00
2023-10-14T01:51:06.926Z,2.90
2023-10-14T01:53:35.642Z,3.37
2023-10-14T01:56:04.036Z,2.53
2023-10-14T01:58:34.568Z,2.97
2023-10-14T02:01:10.614Z,3.20
2023-10-14T02:03:49.260Z,2.87
2023-10-14T02:06:28.173Z,2.27
2023-10-14T02:08:59.449Z,2.90
2023-10-14T02:11:34.262Z,2.20
2023-10-14T02:14:08.192Z,3.10
2023-10-14T02:16:43.515Z,2.70
2023-10-14T02:19:38.696Z,2.43
2023-10-14T02:22:12.646Z,2.40
2023-10-14T02:24:42.512Z,2.63
2023-10-14T02:27:14.123Z,2.40
2023-10-14T02:29:48.593Z,2.30
2023-10-14T02:32:16.236Z,2.50
2023-10-14T02:34:46.582Z,2.50
2023-10-14T02:37:16.562Z,2.80
2023-10-14T02:39:49.827Z,2.60
2023-10-14T02:42:17.182Z,2.23
2023-10-14T02:44:54.115Z,2.33
2023-10-14T02:47:21.737Z,2.77
2023-10-14T02:49:56.373Z,2.60
2023-10-14T02:52:30.672Z,2.53
2023-10-14T02:55:17.149Z,2.63
2023-10-14T02:57:47.256Z,2.63
2023-10-14T03:00:41.297Z,2.70
2023-10-14T03:03:16.101Z,3.53
2023-10-14T03:05:52.274Z,2.77
2023-10-14T03:08:21.642Z,2.70
2023-10-14T03:10:56.218Z,3.13
2023-10-14T03:13:24.171Z,2.83
2023-10-14T03:15:54.238Z,2.40
2023-10-14T03:18:21.777Z,2.23
2023-10-14T03:20:57.740Z,3.20
2023-10-14T03:23:24.878Z,2.80
2023-10-14T03:26:14.994Z,3.40
2023-10-14T03:28:46.212Z,2.47
2023-10-14T03:31:16.891Z,2.43
2023-10-14T03:33:44.527Z,2.50
2023-10-14T03:36:17.048Z,2.30
2023-10-14T03:38:56.406Z,2.37
2023-10-14T03:41:25.341Z,2.33
2023-10-14T03:44:00.995Z,2.27
2023-10-14T03:46:37.105Z,2.67
2023-10-14T03:49:13.727Z,2.57
2023-10-14T03:51:44.036Z,2.90
2023-10-14T03:54:24.944Z,2.90
2023-10-14T03:56:52.326Z,2.60
2023-10-14T03:59:25.324Z,2.57
2023-10-14T04:01:56.471Z,3.10
2023-10-14T04:04:24.970Z,2.43
2023-10-14T04:07:02.830Z,2.37
2023-10-14T04:09:39.106Z,2.30
2023-10-14T04:12:11.088Z,2.73
2023-10-14T04:14:38.814Z,2.40
2023-10-14T04:17:19.424Z,2.23
2023-10-14T04:20:10.646Z,2.63
2023-10-14T04:22:38.503Z,2.37
2023-10-14T04:25:40.734Z,2.80
2023-10-14T04:28:28.057Z,2.70
2023-10-14T04:30:56.251Z,2.53
2023-10-14T04:33:35.016Z,2.93
2023-10-14T04:36:08.047Z,2.87
2023-10-14T04:38:43.215Z,2.33
2023-10-14T04:41:25.136Z,2.40
2023-10-14T04:44:02.451Z,2.23
2023-10-14T04:47:09.206Z,2.10
2023-10-14T04:49:53.137Z,2.37
2023-10-14T04:52:20.246Z,2.70
2023-10-14T04:54:55.729Z,2.50
2023-10-14T04:57:23.538Z,2.57
2023-10-14T04:59:55.101Z,2.63
2023-10-14T05:02:23.160Z,3.00
2023-10-14T05:04:52.184Z,2.70
2023-10-14T05:07:22.945Z,2.30
2023-10-14T05:10:00.541Z,2.70
2023-10-14T05:12:27.676Z,2.67
2023-10-14T05:14:56.902Z,2.87
2023-10-14T05:17:28.136Z,2.47
2023-10-14T05:20:01.281Z,2.90
2023-10-14T05:22:39.120Z,2.40
2023-10-14T05:25:16.934Z,2.53
2023-10-14T05:27:56.039Z,2.47
2023-10-14T05:30:34.825Z,3.80
2023-10-14T05:33:08.560Z,2.30
2023-10-14T05:35:40.591Z,2.53
2023-10-14T05:38:11.229Z,2.17
2023-10-14T05:40:40.445Z,2.60
2023-10-14T05:43:07.707Z,2.73
2023-10-14T05:45:57.633Z,2.50
2023-10-14T05:48:34.036Z,2.10
2023-10-14T05:51:04.068Z,2.40
2023-10-14T05:53:33.375Z,2.73
2023-10-14T05:56:11.016Z,2.43
2023-10-14T05:58:39.315Z,2.93
2023-10-14T06:01:17.355Z,2.20
2023-10-14T06:03:44.573Z,2.47
2023-10-14T06:06:16.835Z,2.90
2023-10-14T06:08:47.832Z,2.47
2023-10-14T06:11:15.270Z,3.50
2023-10-14T06:13:42.408Z,2.73
2023-10-14T06:16:11.406Z,2.60
2023-10-14T06:18:40.729Z,2.97
2023-10-14T06:21:12.301Z,2.80
2023-10-14T06:23:41.156Z,3.03
2023-10-14T06:26:08.500Z,3.30
2023-10-14T06:28:35.617Z,3.23
2023-10-14T06:31:05.164Z,2.73
2023-10-14T06:33:32.423Z,2.57
2023-10-14T06:36:07.004Z,2.63
2023-10-14T06:38:35.074Z,2.87
2023-10-14T06:41:06.629Z,2.83
2023-10-14T06:44:09.951Z,3.00
2023-10-14T06:46:51.124Z,2.90
2023-10-14T06:49:18.289Z,2.30
2023-10-14T06:51:45.873Z,2.53
2023-10-14T06:54:15.355Z,2.30
2023-10-14T06:56:45.944Z,2.50
2023-10-14T06:59:14.400Z,3.00
2023-10-14T07:01:41.595Z,3.00
2023-10-14T07:04:08.853Z,2.80
2023-10-14T07:06:36.472Z,2.97
2023-10-14T07:09:09.127Z,3.00
2023-10-14T07:11:36.170Z,2.70
2023-10-14T07:14:04.587Z,3.33
2023-10-14T07:16:31.978Z,3.03
2023-10-14T07:19:02.143Z,2.83
2023-10-14T07:21:30.473Z,2.80
2023-10-14T07:23:59.594Z,3.20
2023-10-14T07:26:30.462Z,3.30
2023-10-14T07:28:57.641Z,2.70
2023-10-14T07:31:24.929Z,2.60
2023-10-14T07:33:52.443Z,2.80
2023-10-14T07:36:19.839Z,2.40
2023-10-14T07:38:47.896Z,2.93
2023-10-14T07:41:20.152Z,2.40
2023-10-14T07:43:47.372Z,2.30
2023-10-14T07:46:14.482Z,3.10
2023-10-14T07:48:41.839Z,2.83
2023-10-14T07:51:22.339Z,3.43
2023-10-14T07:53:55.908Z,2.90
2023-10-14T07:56:24.557Z,2.73
2023-10-14T07:58:54.382Z,3.10
2023-10-14T08:01:24.487Z,3.00
2023-10-14T08:04:01.330Z,2.40
2023-10-14T08:06:28.598Z,2.93
2023-10-14T08:08:55.944Z,2.87
2023-10-14T08:11:23.335Z,2.83
2023-10-14T08:13:50.633Z,2.93
2023-10-14T08:16:17.797Z,2.40
2023-10-14T08:18:46.177Z,2.43
2023-10-14T08:21:13.389Z,3.13
2023-10-14T08:23:40.542Z,2.27
2023-10-14T08:26:14.478Z,2.83
2023-10-14T08:28:43.383Z,2.80
2023-10-14T08:31:13.027Z,2.73
2023-10-14T08:33:41.756Z,2.50
2023-10-14T08:36:09.974Z,2.70
2023-10-14T08:38:37.118Z,2.83
2023-10-14T08:41:19.663Z,2.77
2023-10-14T08:43:50.777Z,2.97
2023-10-14T08:46:25.298Z,2.00
2023-10-14T08:48:56.721Z,4.50
2023-10-14T08:51:39.169Z,2.43
2023-10-14T08:54:20.553Z,2.20
2023-10-14T08:56:49.895Z,2.30
2023-10-14T08:59:17.880Z,2.47
2023-10-14T09:01:46.218Z,2.80
2023-10-14T09:04:16.478Z,2.80
2023-10-14T09:06:43.978Z,2.60
2023-10-14T09:09:18.740Z,2.80
2023-10-14T09:11:45.957Z,2.60
2023-10-14T09:14:15.871Z,2.30
2023-10-14T09:16:43.580Z,2.73
2023-10-14T09:19:13.230Z,3.20
2023-10-14T09:21:45.328Z,2.33
2023-10-14T09:24:12.992Z,2.90
2023-10-14T09:26:44.897Z,2.65
2023-10-14T09:29:13.139Z,2.80
2023-10-14T09:31:48.259Z,2.43
2023-10-14T09:34:25.292Z,2.97
2023-10-14T09:36:53.673Z,2.50
2023-10-14T09:39:29.783Z,2.90
2023-10-14T09:41:59.916Z,2.93
2023-10-14T09:44:49.240Z,3.20
2023-10-14T09:47:26.805Z,3.00
2023-10-14T09:49:55.011Z,2.90
2023-10-14T09:52:22.928Z,2.67
2023-10-14T09:54:52.858Z,3.05
2023-10-14T09:57:22.352Z,3.10
2023-10-14T09:59:51.555Z,2.50
2023-10-14T10:02:19.871Z,2.60
2023-10-14T10:04:49.858Z,2.53
2023-10-14T10:07:42.214Z,2.55
2023-10-14T10:10:31.548Z,2.55
2023-10-14T10:12:59.441Z,2.92
2023-10-14T10:15:26.976Z,2.47
2023-10-14T10:18:07.035Z,2.53
2023-10-14T10:20:37.244Z,2.13
2023-10-14T10:23:08.415Z,3.72
2023-10-14T10:25:38.720Z,2.70
2023-10-14T10:28:28.070Z,2.55
2023-10-14T10:31:11.716Z,2.53
2023-10-14T10:34:03.517Z,2.40
2023-10-14T10:36:34.755Z,2.60
2023-10-14T10:39:21.107Z,2.63
2023-10-14T10:41:55.376Z,2.22
2023-10-14T10:44:25.582Z,1.90
2023-10-14T10:46:59.999Z,1.88
2023-10-14T10:49:57.860Z,2.17
2023-10-14T10:52:28.171Z,2.08
2023-10-14T10:54:57.664Z,2.10
2023-10-14T10:57:26.617Z,2.20
2023-10-14T10:59:56.390Z,1.83
2023-10-14T11:02:23.432Z,2.53
2023-10-14T11:04:50.749Z,2.20
2023-10-14T11:07:20.447Z,2.00
2023-10-14T11:09:50.503Z,1.87
2023-10-14T11:12:19.930Z,2.27
2023-10-14T11:14:50.075Z,1.77
2023-10-14T11:17:17.559Z,2.00
2023-10-14T11:19:45.225Z,2.00
2023-10-14T11:22:13.057Z,2.60
2023-10-14T11:24:43.574Z,2.83
2023-10-14T11:27:10.988Z,2.22
2023-10-14T11:29:41.497Z,2.35
2023-10-14T11:32:14.207Z,2.78
2023-10-14T11:34:53.292Z,2.55
2023-10-14T11:37:20.688Z,2.55
2023-10-14T11:39:48.179Z,2.47
2023-10-14T11:42:15.358Z,2.33
2023-10-14T11:44:42.511Z,2.00
2023-10-14T11:47:17.497Z,2.42
2023-10-14T11:49:51.112Z,2.85
2023-10-14T11:52:18.343Z,2.00
2023-10-14T11:54:45.444Z,2.53
2023-10-14T11:57:12.793Z,1.90
2023-10-14T11:59:39.947Z,1.67
2023-10-14T12:02:06.989Z,1.63
2023-10-14T12:04:34.298Z,1.00
2023-10-14T12:07:04.623Z,1.00
2023-10-14T12:09:31.713Z,1.20
2023-10-14T12:11:59.676Z,1.38
2023-10-14T12:14:28.385Z,1.50
2023-10-14T12:16:55.494Z,1.60
2023-10-14T12:19:23.945Z,1.90
2023-10-14T12:21:51.365Z,2.28
2023-10-14T12:24:18.414Z,1.75
2023-10-14T12:26:46.938Z,2.28
2023-10-14T12:29:16.848Z,2.30
2023-10-14T12:31:48.036Z,1.77
2023-10-14T12:34:16.710Z,1.58
2023-10-14T12:36:48.708Z,1.52
2023-10-14T12:39:22.481Z,1.20
2023-10-14T12:41:52.020Z,1.47
2023-10-14T12:44:21.291Z,1.17
2023-10-14T12:46:49.499Z,1.40
2023-10-14T12:49:20.261Z,1.47
2023-10-14T12:51:48.057Z,1.07
2023-10-14T12:54:18.757Z,1.20
2023-10-14T12:56:47.185Z,1.10
2023-10-14T12:59:14.421Z,1.10
2023-10-14T13:01:48.739Z,1.10
2023-10-14T13:04:21.487Z,1.50
2023-10-14T13:06:51.430Z,1.10
2023-10-14T13:09:18.780Z,1.23
2023-10-14T13:11:45.840Z,1.03
2023-10-14T13:14:30.023Z,0.70
2023-10-14T13:17:01.585Z,0.60
2023-10-14T13:19:34.742Z,0.97
2023-10-14T13:22:15.829Z,0.90
2023-10-14T13:24:50.983Z,0.90
2023-10-14T13:27:18.925Z,1.00
2023-10-14T13:29:46.105Z,0.90
2023-10-14T13:32:15.797Z,1.20
2023-10-14T13:34:43.212Z,1.20
2023-10-14T13:37:10.606Z,0.97
2023-10-14T13:39:38.962Z,0.97
2023-10-14T13:42:07.570Z,1.20
2023-10-14T13:44:35.592Z,1.60
2023-10-14T13:47:06.620Z,1.30
2023-10-14T13:49:35.002Z,1.30
2023-10-14T13:52:04.776Z,1.50
2023-10-14T13:54:32.692Z,1.37
2023-10-14T13:56:59.864Z,1.50
2023-10-14T13:59:27.042Z,1.53
2023-10-14T14:01:54.536Z,1.60
2023-10-14T14:04:24.688Z,1.40
2023-10-14T14:06:53.905Z,1.30
2023-10-14T14:09:55.133Z,1.30
2023-10-14T14:12:43.520Z,1.10
2023-10-14T14:15:10.872Z,1.10
2023-10-14T14:17:38.119Z,1.00
2023-10-14T14:20:06.447Z,1.00
2023-10-14T14:22:33.677Z,1.20
2023-10-14T14:25:01.365Z,1.00
2023-10-14T14:27:31.822Z,0.93
2023-10-14T14:29:58.834Z,1.33
2023-10-14T14:32:25.953Z,1.33
2023-10-14T14:34:53.080Z,0.97
2023-10-14T14:37:20.164Z,1.17
2023-10-14T14:39:47.176Z,1.20
2023-10-14T14:42:14.528Z,0.87
2023-10-14T14:44:43.347Z,0.93
2023-10-14T14:47:13.932Z,1.00
2023-10-14T14:49:43.104Z,1.20
2023-10-14T14:52:11.268Z,1.10
2023-10-14T14:54:41.774Z,1.20
2023-10-14T14:57:09.594Z,1.00
2023-10-14T14:59:36.586Z,1.20
2023-10-14T15:02:06.398Z,1.17
2023-10-14T15:04:50.564Z,1.33
2023-10-14T15:07:17.790Z,1.37
2023-10-14T15:09:45.618Z,1.20
2023-10-14T15:12:13.037Z,1.10
2023-10-14T15:14:40.416Z,1.20
2023-10-14T15:17:10.685Z,1.40
2023-10-14T15:19:38.961Z,1.63
2023-10-14T15:22:07.505Z,1.20
2023-10-14T15:24:34.948Z,1.87
2023-10-14T15:27:01.982Z,1.10
2023-10-14T15:29:32.046Z,1.23
2023-10-14T15:31:59.093Z,1.50
2023-10-14T15:34:28.955Z,1.60
2023-10-14T15:36:56.435Z,1.60
2023-10-14T15:39:32.501Z,1.43
2023-10-14T15:42:03.984Z,1.30
2023-10-14T15:44:31.269Z,1.20
2023-10-14T15:47:00.631Z,1.30
2023-10-14T15:49:32.540Z,1.20
2023-10-14T15:51:59.691Z,1.00
2023-10-14T15:54:29.768Z,1.70
2023-10-14T15:56:56.907Z,1.40
2023-10-14T15:59:45.831Z,1.63
2023-10-14T16:02:12.922Z,1.10
2023-10-14T16:04:41.173Z,1.33
2023-10-14T16:07:16.457Z,1.50
2023-10-14T16:09:44.264Z,1.20
2023-10-14T16:12:11.292Z,1.80
2023-10-14T16:14:38.288Z,1.40
2023-10-14T16:17:06.950Z,1.47
2023-10-14T16:19:34.062Z,1.50
2023-10-14T16:22:01.130Z,1.50
2023-10-14T16:24:28.258Z,1.40
2023-10-14T16:26:55.304Z,1.50
2023-10-14T16:29:25.407Z,1.87
2023-10-14T16:31:54.982Z,1.30
2023-10-14T16:34:27.574Z,1.30
2023-10-14T16:36:54.780Z,1.97
2023-10-14T16:39:21.881Z,1.70
2023-10-14T16:41:48.971Z,1.97
2023-10-14T16:44:16.024Z,1.90
2023-10-14T16:46:44.498Z,1.60
2023-10-14T16:49:11.767Z,1.63
2023-10-14T16:51:38.971Z,1.50
2023-10-14T16:54:11.710Z,1.70
2023-10-14T16:56:39.933Z,2.53
2023-10-14T16:59:06.956Z,2.30
2023-10-14T17:01:34.623Z,3.50
2023-10-14T17:04:20.332Z,2.37
2023-10-14T17:06:47.471Z,2.00
2023-10-14T17:09:14.639Z,1.60
2023-10-14T17:11:41.713Z,1.87
2023-10-14T17:14:09.742Z,1.90
2023-10-14T17:16:36.954Z,2.23
2023-10-14T17:19:04.243Z,2.30
2023-10-14T17:21:31.268Z,2.50
2023-10-14T17:23:59.755Z,2.27
2023-10-14T17:26:26.746Z,2.17
2023-10-14T17:28:53.785Z,2.80
2023-10-14T17:31:20.985Z,2.63
2023-10-14T17:33:50.965Z,2.20
2023-10-14T17:36:18.123Z,3.00
2023-10-14T17:38:45.242Z,3.03
2023-10-14T17:41:18.453Z,3.53
2023-10-14T17:43:48.330Z,2.70
2023-10-14T17:46:25.187Z,2.90
2023-10-14T17:49:08.110Z,2.80
2023-10-14T17:51:36.219Z,2.50
2023-10-14T17:54:04.184Z,3.23
2023-10-14T17:56:31.163Z,2.40
2023-10-14T17:58:58.475Z,3.00
2023-10-14T18:01:26.944Z,3.83
2023-10-14T18:03:57.224Z,3.70
2023-10-14T18:06:24.955Z,3.83
2023-10-14T18:08:54.828Z,3.50
2023-10-14T18:11:21.932Z,3.40
2023-10-14T18:13:49.007Z,3.50
2023-10-14T18:16:18.216Z,5.60
2023-10-14T18:18:46.377Z,3.87
2023-10-14T18:21:18.034Z,2.87
2023-10-14T18:23:49.158Z,2.77
2023-10-14T18:26:17.571Z,2.80
2023-10-14T18:28:45.233Z,3.50
2023-10-14T18:31:14.130Z,7.23
2023-10-14T18:33:41.403Z,12.73
2023-10-14T18:36:10.887Z,13.43
2023-10-14T18:38:39.580Z,8.70
2023-10-14T18:41:19.555Z,3.97
2023-10-14T18:43:54.581Z,3.10
2023-10-14T18:46:21.903Z,3.70
2023-10-14T18:48:48.985Z,4.00
2023-10-14T18:51:18.863Z,3.70
2023-10-14T18:53:46.111Z,4.07
2023-10-14T18:56:22.235Z,4.00
2023-10-14T18:58:50.991Z,4.53
2023-10-14T19:01:18.423Z,4.40
2023-10-14T19:03:45.718Z,4.17
2023-10-14T19:06:12.781Z,4.10
2023-10-14T19:08:39.851Z,4.00
2023-10-14T19:11:12.447Z,4.53
2023-10-14T19:13:39.692Z,4.07
2023-10-14T19:16:10.019Z,3.57
2023-10-14T19:18:37.195Z,3.90
2023-10-14T19:21:05.650Z,3.80
2023-10-14T19:23:34.579Z,3.80
2023-10-14T19:26:03.551Z,4.40
2023-10-14T19:28:31.168Z,3.37
2023-10-14T19:31:05.564Z,3.63
2023-10-14T19:33:32.783Z,4.33
2023-10-14T19:36:06.119Z,4.40
2023-10-14T19:38:49.688Z,4.47
2023-10-14T19:41:16.775Z,4.33
2023-10-14T19:43:44.170Z,3.53
2023-10-14T19:46:13.663Z,3.80
2023-10-14T19:48:43.298Z,3.73
2023-10-14T19:51:13.036Z,3.97
2023-10-14T19:53:41.025Z,4.00
2023-10-14T19:56:15.950Z,3.83
2023-10-14T19:58:44.698Z,4.20
2023-10-14T20:01:17.104Z,4.23
2023-10-14T20:03:45.889Z,3.93
2023-10-14T20:06:20.570Z,4.03
2023-10-14T20:08:48.200Z,3.03
2023-10-14T20:11:15.357Z,3.30
2023-10-14T20:13:42.706Z,3.53
2023-10-14T20:16:12.848Z,3.30
2023-10-14T20:18:40.007Z,3.10
2023-10-14T20:21:07.526Z,3.07
2023-10-14T20:23:35.198Z,3.00
2023-10-14T20:26:05.034Z,2.70
2023-10-14T20:28:32.170Z,3.30
2023-10-14T20:31:03.439Z,3.50
2023-10-14T20:33:30.827Z,3.83
2023-10-14T20:35:58.999Z,3.60
2023-10-14T20:38:26.056Z,3.57
2023-10-14T20:40:53.297Z,2.60
2023-10-14T20:43:21.298Z,3.13
2023-10-14T20:45:52.486Z,3.17
2023-10-14T20:48:19.700Z,2.87
2023-10-14T20:50:49.564Z,3.33
2023-10-14T20:53:17.186Z,3.40
2023-10-14T20:55:50.114Z,3.03
2023-10-14T20:58:17.680Z,3.23
2023-10-14T21:00:45.177Z,3.07
2023-10-14T21:03:21.730Z,3.10
2023-10-14T21:05:59.075Z,3.13
2023-10-14T21:08:27.101Z,2.90
2023-10-14T21:10:57.187Z,2.43
2023-10-14T21:13:27.782Z,3.13
2023-10-14T21:16:04.014Z,3.10
2023-10-14T21:18:32.769Z,2.87
2023-10-14T21:21:01.477Z,2.97
2023-10-14T21:23:31.001Z,3.00
2023-10-14T21:26:00.858Z,3.07
2023-10-14T21:28:34.209Z,2.50
2023-10-14T21:31:01.327Z,2.60
2023-10-14T21:33:28.523Z,2.40
2023-10-14T21:35:57.802Z,2.43
2023-10-14T21:38:26.496Z,2.27
2023-10-14T21:40:54.171Z,2.30
2023-10-14T21:43:23.406Z,2.03
2023-10-14T21:45:50.956Z,2.10
2023-10-14T21:48:18.033Z,2.13
2023-10-14T21:50:45.673Z,1.90
2023-10-14T21:53:14.944Z,2.07
2023-10-14T21:55:42.882Z,1.50
2023-10-14T21:58:10.412Z,1.60
2023-10-14T22:00:50.866Z,1.50
2023-10-14T22:03:21.150Z,1.30
2023-10-14T22:05:49.317Z,1.60
2023-10-14T22:08:19.443Z,1.33
2023-10-14T22:10:53.524Z,1.50
2023-10-14T22:13:22.840Z,1.30
2023-10-14T22:15:50.418Z,1.30
2023-10-14T22:18:17.585Z,1.10
2023-10-14T22:20:44.578Z,1.00
2023-10-14T22:23:11.766Z,1.00
2023-10-14T22:25:46.551Z,1.60
2023-10-14T22:28:14.046Z,1.23
2023-10-14T22:30:41.713Z,1.00
2023-10-14T22:33:09.779Z,1.03
2023-10-14T22:35:37.712Z,1.20
2023-10-14T22:38:11.253Z,1.10
2023-10-14T22:40:39.576Z,1.40
2023-10-14T22:43:09.285Z,0.90
2023-10-14T22:45:37.517Z,1.30
2023-10-14T22:48:07.525Z,1.30
2023-10-14T22:50:35.916Z,1.40
2023-10-14T22:53:04.159Z,1.10
2023-10-14T22:55:35.045Z,1.23
2023-10-14T22:58:02.491Z,1.57
2023-10-14T23:00:30.897Z,1.40
2023-10-14T23:02:58.662Z,1.60
2023-10-14T23:05:30.806Z,1.57
2023-10-14T23:08:01.673Z,2.20
2023-10-14T23:10:32.395Z,1.53
2023-10-14T23:13:00.840Z,1.73
2023-10-14T23:15:29.465Z,1.47
2023-10-14T23:18:05.768Z,1.70
2023-10-14T23:20:34.442Z,1.60
2023-10-14T23:23:02.152Z,1.90
2023-10-14T23:25:29.827Z,1.70
2023-10-14T23:28:00.689Z,1.97
2023-10-14T23:30:27.841Z,2.20
2023-10-14T23:32:58.294Z,2.57
2023-10-14T23:35:26.024Z,1.90
2023-10-14T23:38:02.879Z,1.93
2023-10-14T23:40:32.018Z,1.90
2023-10-14T23:43:02.512Z,1.83
2023-10-14T23:45:36.294Z,2.30
2023-10-14T23:48:04.218Z,2.53
2023-10-14T23:50:37.079Z,2.20
2023-10-14T23:53:06.872Z,2.10
2023-10-14T23:55:34.624Z,1.90
2023-10-14T23:58:01.715Z,1.73
